METAR Data
IDs: Format: Raw Decoded Include TAF

Data at: 0123 UTC 24 Sep 2018

KHZY 240053Z AUTO 07004KT 10SM CLR 14/13 A3022 RMK AO2 SLP235 T01440133
KHZY 232353Z AUTO 00000KT 10SM CLR 14/13 A3021 RMK AO2 SLP232 T01440133 10217 20144 53009
KHZY 232253Z AUTO VRB05KT 10SM CLR 17/14 A3020 RMK AO2 SLP227 T01720139
KHZY 232153Z AUTO 02005KT 10SM CLR 19/13 A3019 RMK AO2 SLP223 T01940133
KHZY 232053Z AUTO 08006KT 10SM CLR 21/09 A3018 RMK AO2 SLP220 T02110094 56013
KHZY 231953Z AUTO 09008KT 10SM CLR 21/09 A3018 RMK AO2 SLP221 T02060094
KHZY 231853Z AUTO 08004KT 10SM CLR 20/10 A3020 RMK AO2 SLP225 T02000100
KHZY 231753Z AUTO 11007KT 10SM CLR 19/11 A3022 RMK AO2 SLP233 T01890111 10194 20067 56008
KHZY 231653Z AUTO 10004KT 10SM CLR 18/12 A3023 RMK AO2 SLP236 T01830122
KHZY 231553Z AUTO 10007KT 10SM CLR 17/12 A3024 RMK AO2 SLP238 T01670117
KHZY 231453Z AUTO 08006KT 10SM CLR 16/12 A3025 RMK AO2 SLP243 T01560117 53005
KHZY 231353Z AUTO 09004KT 10SM CLR 13/12 A3024 RMK AO2 SLP239 T01330122
KHZY 231253Z AUTO 09003KT 10SM CLR 09/09 A3023 RMK AO2 SLP237 T00940094
KHZY 231153Z AUTO 00000KT 9SM CLR 07/07 A3023 RMK AO2 SLP239 T00670067 10089 20061 53007
KHZY 231053Z AUTO 00000KT 8SM CLR 06/06 A3021 RMK AO2 SLP234 T00610061
KHZY 230953Z AUTO 00000KT 10SM CLR 07/07 A3022 RMK AO2 SLP234 T00670067
KHZY 230853Z AUTO 00000KT 7SM CLR 07/07 A3021 RMK AO2 SLP231 T00670067 58008
KHZY 230821Z AUTO 00000KT 7SM FEW002 07/07 A3021 RMK AO2 T00670067
KHZY 230814Z AUTO 00000KT 2SM BR FEW002 07/07 A3021 RMK AO2 T00670067
KHZY 230806Z AUTO 00000KT 1/2SM FG VV002 07/07 A3022 RMK AO2 T00670067
KHZY 230759Z AUTO 00000KT 1SM BR VV002 07/07 A3023 RMK AO2 T00670067
KHZY 230756Z AUTO 00000KT 2 1/2SM BR FEW002 07/07 A3022 RMK AO2 T00670067
KHZY 230753Z AUTO 00000KT 8SM CLR 07/07 A3022 RMK AO2 SLP235 T00670067
KHZY 230653Z AUTO 00000KT 10SM CLR 08/08 A3023 RMK AO2 SLP237 T00780078
KHZY 230553Z AUTO 00000KT 9SM CLR 08/08 A3023 RMK AO2 SLP238 T00830083 10122 20083 58004
KHZY 230453Z AUTO 00000KT 7SM CLR 09/09 A3025 RMK AO2 SLP242 T00890089 401720089
KHZY 230353Z AUTO 00000KT 9SM CLR 10/10 A3025 RMK AO2 SLP243 T01000100
KHZY 230253Z AUTO 00000KT 10SM CLR 10/10 A3025 RMK AO2 SLP242 T01000100 55001
KHZY 230153Z AUTO 00000KT 10SM CLR 11/11 A3024 RMK AO2 SLP241 T01110106
KHZY 230053Z AUTO 00000KT 10SM CLR 11/11 A3024 RMK AO2 SLP241 T01110106
KHZY 222353Z AUTO 00000KT 10SM CLR 12/11 A3025 RMK AO2 SLP243 T01220111 10161 20122 50001
KHZY 222253Z AUTO 00000KT 10SM SCT033 13/11 A3025 RMK AO2 SLP243 T01330111
KHZY 222153Z AUTO VRB04KT 10SM FEW023 SCT035 14/11 A3025 RMK AO2 SLP245 T01440111
KHZY 222053Z AUTO 02005KT 10SM FEW025 BKN036 15/11 A3025 RMK AO2 SLP241 T01500106 58010
KHZY 221953Z AUTO VRB04KT 10SM SCT023 OVC032 16/11 A3027 RMK AO2 SLP247 T01560106
KHZY 221906Z AUTO 35004KT 10SM SCT023 BKN029 OVC036 16/11 A3027 RMK AO2 T01560111
KHZY 221853Z AUTO 35005KT 10SM SCT025 BKN038 16/11 A3027 RMK AO2 SLP249 T01560111
KHZY 221753Z AUTO 03004KT 10SM BKN030 OVC035 16/10 A3028 RMK AO2 SLP251 T01560100 10156 20133 58006
KHZY 221653Z AUTO VRB04KT 10SM SCT027 OVC033 16/10 A3030 RMK AO2 SLP257 T01560100
KHZY 221600Z AUTO 06006KT 10SM OVC030 14/09 A3030 RMK AO2 T01440094
KHZY 221553Z AUTO 06005KT 10SM OVC028 14/09 A3030 RMK AO2 SLP258 T01440094
KHZY 221523Z AUTO VRB06KT 10SM OVC029 14/10 A3030 RMK AO2 T01440100
KHZY 221453Z AUTO VRB04KT 10SM OVC030 14/09 A3030 RMK AO2 SLP257 T01440094 53013
KHZY 221418Z AUTO VRB06KT 10SM BKN026 OVC032 14/10 A3029 RMK AO2 T01390100
KHZY 221353Z AUTO VRB04KT 10SM OVC032 14/09 A3029 RMK AO2 SLP252 T01440094